sensor_id;sensor_type;location;lat;lon;timestamp;temperature;humidity
46730;DHT22;32476;50.002;11.854;2023-12-20T00:01:05;1.70;99.90
46730;DHT22;32476;50.002;11.854;2023-12-20T00:03:31;1.70;99.90
46730;DHT22;32476;50.002;11.854;2023-12-20T00:05:58;1.70;99.90
46730;DHT22;32476;50.002;11.854;2023-12-20T00:08:24;1.70;99.90
46730;DHT22;32476;50.002;11.854;2023-12-20T00:10:50;1.70;99.90
46730;DHT22;32476;50.002;11.854;2023-12-20T00:13:17;1.70;99.90
46730;DHT22;32476;50.002;11.854;2023-12-20T00:15:43;1.60;99.90
46730;DHT22;32476;50.002;11.854;2023-12-20T00:18:09;1.60;99.90
46730;DHT22;32476;50.002;11.854;2023-12-20T00:20:37;1.60;99.90
46730;DHT22;32476;50.002;11.854;2023-12-20T00:23:03;1.70;99.90
46730;DHT22;32476;50.002;11.854;2023-12-20T00:25:29;1.70;99.90
46730;DHT22;32476;50.002;11.854;2023-12-20T00:27:56;1.70;99.90
46730;DHT22;32476;50.002;11.854;2023-12-20T00:30:22;1.70;99.90
46730;DHT22;32476;50.002;11.854;2023-12-20T00:32:48;1.70;99.90
46730;DHT22;32476;50.002;11.854;2023-12-20T00:35:16;1.70;99.90
46730;DHT22;32476;50.002;11.854;2023-12-20T00:37:42;1.70;99.90
46730;DHT22;32476;50.002;11.854;2023-12-20T00:40:09;1.70;99.90
46730;DHT22;32476;50.002;11.854;2023-12-20T00:42:37;1.70;99.90
46730;DHT22;32476;50.002;11.854;2023-12-20T00:45:03;1.80;99.90
46730;DHT22;32476;50.002;11.854;2023-12-20T00:47:30;1.80;99.90
46730;DHT22;32476;50.002;11.854;2023-12-20T00:49:58;1.70;99.90
46730;DHT22;32476;50.002;11.854;2023-12-20T00:52:24;1.70;99.90
46730;DHT22;32476;50.002;11.854;2023-12-20T00:54:51;1.70;99.90
46730;DHT22;32476;50.002;11.854;2023-12-20T00:57:19;1.70;99.90
46730;DHT22;32476;50.002;11.854;2023-12-20T00:59:45;1.60;99.90
46730;DHT22;32476;50.002;11.854;2023-12-20T01:02:11;1.60;99.90
46730;DHT22;32476;50.002;11.854;2023-12-20T01:04:38;1.60;99.90
46730;DHT22;32476;50.002;11.854;2023-12-20T01:07:04;1.60;99.90
46730;DHT22;32476;50.002;11.854;2023-12-20T01:09:30;1.60;99.90
46730;DHT22;32476;50.002;11.854;2023-12-20T01:11:57;1.50;99.90
46730;DHT22;32476;50.002;11.854;2023-12-20T01:14:24;1.50;99.90
46730;DHT22;32476;50.002;11.854;2023-12-20T01:16:50;1.40;99.90
46730;DHT22;32476;50.002;11.854;2023-12-20T01:19:17;1.40;99.90
46730;DHT22;32476;50.002;11.854;2023-12-20T01:21:43;1.40;99.90
46730;DHT22;32476;50.002;11.854;2023-12-20T01:24:09;1.40;99.90
46730;DHT22;32476;50.002;11.854;2023-12-20T01:26:37;1.40;99.90
46730;DHT22;32476;50.002;11.854;2023-12-20T01:29:03;1.40;99.90
46730;DHT22;32476;50.002;11.854;2023-12-20T01:31:29;1.30;99.90
46730;DHT22;32476;50.002;11.854;2023-12-20T01:33:56;1.30;99.90
46730;DHT22;32476;50.002;11.854;2023-12-20T01:36:22;1.30;99.90
46730;DHT22;32476;50.002;11.854;2023-12-20T01:38:48;1.20;99.90
46730;DHT22;32476;50.002;11.854;2023-12-20T01:41:16;1.20;99.90
46730;DHT22;32476;50.002;11.854;2023-12-20T01:43:42;1.30;99.90
46730;DHT22;32476;50.002;11.854;2023-12-20T01:46:10;1.30;99.90
46730;DHT22;32476;50.002;11.854;2023-12-20T01:48:37;1.20;99.90
46730;DHT22;32476;50.002;11.854;2023-12-20T01:51:04;1.20;99.90
46730;DHT22;32476;50.002;11.854;2023-12-20T01:53:31;1.20;99.90
46730;DHT22;32476;50.002;11.854;2023-12-20T01:55:59;1.20;99.90
46730;DHT22;32476;50.002;11.854;2023-12-20T01:58:26;1.20;99.90
46730;DHT22;32476;50.002;11.854;2023-12-20T02:00:52;1.20;99.90
46730;DHT22;32476;50.002;11.854;2023-12-20T02:03:21;1.20;99.90
46730;DHT22;32476;50.002;11.854;2023-12-20T02:05:47;1.20;99.90
46730;DHT22;32476;50.002;11.854;2023-12-20T02:08:13;1.10;99.90
46730;DHT22;32476;50.002;11.854;2023-12-20T02:10:41;1.20;99.90
46730;DHT22;32476;50.002;11.854;2023-12-20T02:13:07;1.10;99.90
46730;DHT22;32476;50.002;11.854;2023-12-20T02:15:33;1.10;99.90
46730;DHT22;32476;50.002;11.854;2023-12-20T02:18:01;1.10;99.90
46730;DHT22;32476;50.002;11.854;2023-12-20T02:20:26;1.10;99.90
46730;DHT22;32476;50.002;11.854;2023-12-20T02:22:52;1.10;99.90
46730;DHT22;32476;50.002;11.854;2023-12-20T02:25:20;1.10;99.90
46730;DHT22;32476;50.002;11.854;2023-12-20T02:27:46;1.10;99.90
46730;DHT22;32476;50.002;11.854;2023-12-20T02:30:12;1.10;99.90
46730;DHT22;32476;50.002;11.854;2023-12-20T02:32:40;1.10;99.90
46730;DHT22;32476;50.002;11.854;2023-12-20T02:35:06;1.10;99.90
46730;DHT22;32476;50.002;11.854;2023-12-20T02:37:33;1.10;99.90
46730;DHT22;32476;50.002;11.854;2023-12-20T02:40:00;1.10;99.90
46730;DHT22;32476;50.002;11.854;2023-12-20T02:42:26;1.10;99.90
46730;DHT22;32476;50.002;11.854;2023-12-20T02:44:52;1.00;99.90
46730;DHT22;32476;50.002;11.854;2023-12-20T02:47:20;1.00;99.90
46730;DHT22;32476;50.002;11.854;2023-12-20T02:49:45;1.00;99.90
46730;DHT22;32476;50.002;11.854;2023-12-20T02:52:11;1.10;99.90
46730;DHT22;32476;50.002;11.854;2023-12-20T02:54:39;1.00;99.90
46730;DHT22;32476;50.002;11.854;2023-12-20T02:57:05;1.00;99.90
46730;DHT22;32476;50.002;11.854;2023-12-20T02:59:31;1.00;99.90
46730;DHT22;32476;50.002;11.854;2023-12-20T03:01:58;1.00;99.90
46730;DHT22;32476;50.002;11.854;2023-12-20T03:04:24;1.00;99.90
46730;DHT22;32476;50.002;11.854;2023-12-20T03:06:50;1.00;99.90
46730;DHT22;32476;50.002;11.854;2023-12-20T03:09:18;0.90;99.90
46730;DHT22;32476;50.002;11.854;2023-12-20T03:11:44;0.90;99.90
46730;DHT22;32476;50.002;11.854;2023-12-20T03:14:10;0.90;99.90
46730;DHT22;32476;50.002;11.854;2023-12-20T03:16:37;0.90;99.90
46730;DHT22;32476;50.002;11.854;2023-12-20T03:19:03;0.90;99.90
46730;DHT22;32476;50.002;11.854;2023-12-20T03:21:29;0.90;99.90
46730;DHT22;32476;50.002;11.854;2023-12-20T03:23:56;0.90;99.90
46730;DHT22;32476;50.002;11.854;2023-12-20T03:26:22;0.90;99.90
46730;DHT22;32476;50.002;11.854;2023-12-20T03:28:48;0.90;99.90
46730;DHT22;32476;50.002;11.854;2023-12-20T03:31:16;0.90;99.90
46730;DHT22;32476;50.002;11.854;2023-12-20T03:33:42;0.90;99.90
46730;DHT22;32476;50.002;11.854;2023-12-20T03:36:08;1.00;99.90
46730;DHT22;32476;50.002;11.854;2023-12-20T03:38:35;0.90;99.90
46730;DHT22;32476;50.002;11.854;2023-12-20T03:41:01;0.90;99.90
46730;DHT22;32476;50.002;11.854;2023-12-20T03:43:27;0.90;99.90
46730;DHT22;32476;50.002;11.854;2023-12-20T03:45:54;0.90;99.90
46730;DHT22;32476;50.002;11.854;2023-12-20T03:48:20;1.00;99.90
46730;DHT22;32476;50.002;11.854;2023-12-20T03:50:46;1.00;99.90
46730;DHT22;32476;50.002;11.854;2023-12-20T03:53:14;1.00;99.90
46730;DHT22;32476;50.002;11.854;2023-12-20T03:55:40;1.00;99.90
46730;DHT22;32476;50.002;11.854;2023-12-20T03:58:06;0.90;99.90
46730;DHT22;32476;50.002;11.854;2023-12-20T04:00:33;0.90;99.90
46730;DHT22;32476;50.002;11.854;2023-12-20T04:02:59;0.90;99.90
46730;DHT22;32476;50.002;11.854;2023-12-20T04:05:25;0.90;99.90
46730;DHT22;32476;50.002;11.854;2023-12-20T04:07:52;0.90;99.90
46730;DHT22;32476;50.002;11.854;2023-12-20T04:10:22;0.90;99.90
46730;DHT22;32476;50.002;11.854;2023-12-20T04:12:48;0.90;99.90
46730;DHT22;32476;50.002;11.854;2023-12-20T04:15:16;0.90;99.90
46730;DHT22;32476;50.002;11.854;2023-12-20T04:17:42;1.00;99.90
46730;DHT22;32476;50.002;11.854;2023-12-20T04:20:08;0.90;99.90
46730;DHT22;32476;50.002;11.854;2023-12-20T04:22:35;0.90;99.90
46730;DHT22;32476;50.002;11.854;2023-12-20T04:25:01;0.90;99.90
46730;DHT22;32476;50.002;11.854;2023-12-20T04:27:27;0.90;99.90
46730;DHT22;32476;50.002;11.854;2023-12-20T04:29:55;0.90;99.90
46730;DHT22;32476;50.002;11.854;2023-12-20T04:32:21;0.90;99.90
46730;DHT22;32476;50.002;11.854;2023-12-20T04:34:47;0.90;99.90
46730;DHT22;32476;50.002;11.854;2023-12-20T04:37:15;0.90;99.90
46730;DHT22;32476;50.002;11.854;2023-12-20T04:39:41;0.90;99.90
46730;DHT22;32476;50.002;11.854;2023-12-20T04:42:07;0.90;99.90
46730;DHT22;32476;50.002;11.854;2023-12-20T04:44:35;0.90;99.90
46730;DHT22;32476;50.002;11.854;2023-12-20T04:47:00;1.00;99.90
46730;DHT22;32476;50.002;11.854;2023-12-20T04:49:26;1.00;99.90
46730;DHT22;32476;50.002;11.854;2023-12-20T04:51:54;0.90;99.90
46730;DHT22;32476;50.002;11.854;2023-12-20T04:54:21;0.90;99.90
46730;DHT22;32476;50.002;11.854;2023-12-20T04:56:47;1.00;99.90
46730;DHT22;32476;50.002;11.854;2023-12-20T04:59:14;1.00;99.90
46730;DHT22;32476;50.002;11.854;2023-12-20T05:01:40;1.00;99.90
46730;DHT22;32476;50.002;11.854;2023-12-20T05:04:07;1.00;99.90
46730;DHT22;32476;50.002;11.854;2023-12-20T05:06:34;1.00;99.90
46730;DHT22;32476;50.002;11.854;2023-12-20T05:09:00;1.00;99.90
46730;DHT22;32476;50.002;11.854;2023-12-20T05:11:26;1.00;99.90
46730;DHT22;32476;50.002;11.854;2023-12-20T05:13:53;1.00;99.90
46730;DHT22;32476;50.002;11.854;2023-12-20T05:16:19;1.00;99.90
46730;DHT22;32476;50.002;11.854;2023-12-20T05:18:47;0.90;99.90
46730;DHT22;32476;50.002;11.854;2023-12-20T05:21:15;0.90;99.90
46730;DHT22;32476;50.002;11.854;2023-12-20T05:23:42;0.90;99.90
46730;DHT22;32476;50.002;11.854;2023-12-20T05:26:08;0.90;99.90
46730;DHT22;32476;50.002;11.854;2023-12-20T05:28:35;1.00;99.90
46730;DHT22;32476;50.002;11.854;2023-12-20T05:31:14;0.90;99.90
46730;DHT22;32476;50.002;11.854;2023-12-20T05:33:42;0.90;99.90
46730;DHT22;32476;50.002;11.854;2023-12-20T05:36:08;1.00;99.90
46730;DHT22;32476;50.002;11.854;2023-12-20T05:38:37;1.00;99.90
46730;DHT22;32476;50.002;11.854;2023-12-20T05:41:04;1.00;99.90
46730;DHT22;32476;50.002;11.854;2023-12-20T05:43:30;0.90;99.90
46730;DHT22;32476;50.002;11.854;2023-12-20T05:45:56;0.90;99.90
46730;DHT22;32476;50.002;11.854;2023-12-20T05:48:25;0.90;99.90
46730;DHT22;32476;50.002;11.854;2023-12-20T05:50:51;0.90;99.90
46730;DHT22;32476;50.002;11.854;2023-12-20T05:53:16;1.00;99.90
46730;DHT22;32476;50.002;11.854;2023-12-20T05:55:44;0.90;99.90
46730;DHT22;32476;50.002;11.854;2023-12-20T05:58:10;1.00;99.90
46730;DHT22;32476;50.002;11.854;2023-12-20T06:00:36;1.00;99.90
46730;DHT22;32476;50.002;11.854;2023-12-20T06:03:04;1.00;99.90
46730;DHT22;32476;50.002;11.854;2023-12-20T06:05:30;1.00;99.90
46730;DHT22;32476;50.002;11.854;2023-12-20T06:07:56;1.00;99.90
46730;DHT22;32476;50.002;11.854;2023-12-20T06:10:28;0.90;99.90
46730;DHT22;32476;50.002;11.854;2023-12-20T06:12:55;1.00;99.90
46730;DHT22;32476;50.002;11.854;2023-12-20T06:15:21;1.00;99.90
46730;DHT22;32476;50.002;11.854;2023-12-20T06:17:49;1.00;99.90
46730;DHT22;32476;50.002;11.854;2023-12-20T06:20:44;1.00;99.90
46730;DHT22;32476;50.002;11.854;2023-12-20T06:23:16;1.00;99.90
46730;DHT22;32476;50.002;11.854;2023-12-20T06:25:42;1.00;99.90
46730;DHT22;32476;50.002;11.854;2023-12-20T06:28:16;0.90;99.90
46730;DHT22;32476;50.002;11.854;2023-12-20T06:30:43;0.90;99.90
46730;DHT22;32476;50.002;11.854;2023-12-20T06:33:09;0.90;99.90
46730;DHT22;32476;50.002;11.854;2023-12-20T06:35:37;0.90;99.90
46730;DHT22;32476;50.002;11.854;2023-12-20T06:38:04;0.90;99.90
46730;DHT22;32476;50.002;11.854;2023-12-20T06:40:30;1.00;99.90
46730;DHT22;32476;50.002;11.854;2023-12-20T06:42:56;0.90;99.90
46730;DHT22;32476;50.002;11.854;2023-12-20T06:45:23;1.00;99.90
46730;DHT22;32476;50.002;11.854;2023-12-20T06:47:50;1.00;99.90
46730;DHT22;32476;50.002;11.854;2023-12-20T06:50:15;1.00;99.90
46730;DHT22;32476;50.002;11.854;2023-12-20T06:52:43;1.00;99.90
46730;DHT22;32476;50.002;11.854;2023-12-20T06:55:09;0.90;99.90
46730;DHT22;32476;50.002;11.854;2023-12-20T06:57:35;0.90;99.90
46730;DHT22;32476;50.002;11.854;2023-12-20T07:00:04;0.90;99.90
46730;DHT22;32476;50.002;11.854;2023-12-20T07:02:31;1.00;99.90
46730;DHT22;32476;50.002;11.854;2023-12-20T07:04:57;1.00;99.90
46730;DHT22;32476;50.002;11.854;2023-12-20T07:07:24;1.00;99.90
46730;DHT22;32476;50.002;11.854;2023-12-20T07:09:50;1.00;99.90
46730;DHT22;32476;50.002;11.854;2023-12-20T07:12:16;1.10;99.90
46730;DHT22;32476;50.002;11.854;2023-12-20T07:14:46;1.10;99.90
46730;DHT22;32476;50.002;11.854;2023-12-20T07:17:12;1.10;99.90
46730;DHT22;32476;50.002;11.854;2023-12-20T07:19:41;1.10;99.90
46730;DHT22;32476;50.002;11.854;2023-12-20T07:22:09;1.10;99.90
46730;DHT22;32476;50.002;11.854;2023-12-20T07:24:35;1.20;99.90
46730;DHT22;32476;50.002;11.854;2023-12-20T07:27:01;1.20;99.90
46730;DHT22;32476;50.002;11.854;2023-12-20T07:29:29;1.20;99.90
46730;DHT22;32476;50.002;11.854;2023-12-20T07:31:55;1.20;99.90
46730;DHT22;32476;50.002;11.854;2023-12-20T07:34:21;1.20;99.90
46730;DHT22;32476;50.002;11.854;2023-12-20T07:36:48;1.30;99.90
46730;DHT22;32476;50.002;11.854;2023-12-20T07:39:14;1.30;99.90
46730;DHT22;32476;50.002;11.854;2023-12-20T07:41:40;1.30;99.90
46730;DHT22;32476;50.002;11.854;2023-12-20T07:44:08;1.30;99.90
46730;DHT22;32476;50.002;11.854;2023-12-20T07:46:34;1.30;99.90
46730;DHT22;32476;50.002;11.854;2023-12-20T07:49:05;1.30;99.90
46730;DHT22;32476;50.002;11.854;2023-12-20T07:51:32;1.30;99.90
46730;DHT22;32476;50.002;11.854;2023-12-20T07:53:59;1.30;99.90
46730;DHT22;32476;50.002;11.854;2023-12-20T07:56:24;1.30;99.90
46730;DHT22;32476;50.002;11.854;2023-12-20T07:58:52;1.40;99.90
46730;DHT22;32476;50.002;11.854;2023-12-20T08:01:18;1.40;99.90
46730;DHT22;32476;50.002;11.854;2023-12-20T08:03:44;1.40;99.90
46730;DHT22;32476;50.002;11.854;2023-12-20T08:06:11;1.40;99.90
46730;DHT22;32476;50.002;11.854;2023-12-20T08:08:37;1.50;99.90
46730;DHT22;32476;50.002;11.854;2023-12-20T08:11:03;1.50;99.90
46730;DHT22;32476;50.002;11.854;2023-12-20T08:13:31;1.50;99.90
46730;DHT22;32476;50.002;11.854;2023-12-20T08:15:57;1.50;99.90
46730;DHT22;32476;50.002;11.854;2023-12-20T08:18:23;1.50;99.90
46730;DHT22;32476;50.002;11.854;2023-12-20T08:20:51;1.60;99.90
46730;DHT22;32476;50.002;11.854;2023-12-20T08:23:19;1.60;99.90
46730;DHT22;32476;50.002;11.854;2023-12-20T08:25:46;1.60;99.90
46730;DHT22;32476;50.002;11.854;2023-12-20T08:28:15;1.60;99.90
46730;DHT22;32476;50.002;11.854;2023-12-20T08:30:41;1.70;99.90
46730;DHT22;32476;50.002;11.854;2023-12-20T08:33:07;1.70;99.90
46730;DHT22;32476;50.002;11.854;2023-12-20T08:35:39;1.70;99.90
46730;DHT22;32476;50.002;11.854;2023-12-20T08:38:06;1.70;99.90
46730;DHT22;32476;50.002;11.854;2023-12-20T08:40:32;1.70;99.90
46730;DHT22;32476;50.002;11.854;2023-12-20T08:42:59;1.70;99.90
46730;DHT22;32476;50.002;11.854;2023-12-20T08:45:25;1.70;99.90
46730;DHT22;32476;50.002;11.854;2023-12-20T08:47:51;1.70;99.90
46730;DHT22;32476;50.002;11.854;2023-12-20T08:50:18;1.80;99.90
46730;DHT22;32476;50.002;11.854;2023-12-20T08:52:44;1.80;99.90
46730;DHT22;32476;50.002;11.854;2023-12-20T08:55:10;1.80;99.90
46730;DHT22;32476;50.002;11.854;2023-12-20T08:57:38;1.80;99.90
46730;DHT22;32476;50.002;11.854;2023-12-20T09:00:11;1.70;99.90
46730;DHT22;32476;50.002;11.854;2023-12-20T09:02:41;1.70;99.90
46730;DHT22;32476;50.002;11.854;2023-12-20T09:05:07;1.70;99.90
46730;DHT22;32476;50.002;11.854;2023-12-20T09:07:33;1.80;99.90
46730;DHT22;32476;50.002;11.854;2023-12-20T09:10:01;1.80;99.90
46730;DHT22;32476;50.002;11.854;2023-12-20T09:12:27;1.80;99.90
46730;DHT22;32476;50.002;11.854;2023-12-20T09:14:53;1.70;99.90
46730;DHT22;32476;50.002;11.854;2023-12-20T09:17:21;1.70;99.90
46730;DHT22;32476;50.002;11.854;2023-12-20T09:19:48;1.70;99.90
46730;DHT22;32476;50.002;11.854;2023-12-20T09:22:14;1.70;99.90
46730;DHT22;32476;50.002;11.854;2023-12-20T09:24:42;1.70;99.90
46730;DHT22;32476;50.002;11.854;2023-12-20T09:27:08;1.70;99.90
46730;DHT22;32476;50.002;11.854;2023-12-20T09:29:34;1.80;99.90
46730;DHT22;32476;50.002;11.854;2023-12-20T09:32:02;1.80;99.90
46730;DHT22;32476;50.002;11.854;2023-12-20T09:34:28;1.80;99.90
46730;DHT22;32476;50.002;11.854;2023-12-20T09:36:55;1.80;99.90
46730;DHT22;32476;50.002;11.854;2023-12-20T09:39:22;1.80;99.90
46730;DHT22;32476;50.002;11.854;2023-12-20T09:42:01;1.70;99.90
46730;DHT22;32476;50.002;11.854;2023-12-20T09:44:31;1.70;99.90
46730;DHT22;32476;50.002;11.854;2023-12-20T09:46:57;1.70;99.90
46730;DHT22;32476;50.002;11.854;2023-12-20T09:49:23;1.70;99.90
46730;DHT22;32476;50.002;11.854;2023-12-20T09:51:54;1.60;99.90
46730;DHT22;32476;50.002;11.854;2023-12-20T09:54:21;1.60;99.90
46730;DHT22;32476;50.002;11.854;2023-12-20T09:56:47;1.60;99.90
46730;DHT22;32476;50.002;11.854;2023-12-20T09:59:15;1.60;99.90
46730;DHT22;32476;50.002;11.854;2023-12-20T10:01:42;1.70;99.90
46730;DHT22;32476;50.002;11.854;2023-12-20T10:04:10;1.70;99.90
46730;DHT22;32476;50.002;11.854;2023-12-20T10:06:40;1.70;99.90
46730;DHT22;32476;50.002;11.854;2023-12-20T10:09:10;1.60;99.90
46730;DHT22;32476;50.002;11.854;2023-12-20T10:11:40;1.60;99.90
46730;DHT22;32476;50.002;11.854;2023-12-20T10:14:07;1.60;99.90
46730;DHT22;32476;50.002;11.854;2023-12-20T10:16:34;1.60;99.90
46730;DHT22;32476;50.002;11.854;2023-12-20T10:19:00;1.60;99.90
46730;DHT22;32476;50.002;11.854;2023-12-20T10:21:31;1.60;99.90
46730;DHT22;32476;50.002;11.854;2023-12-20T10:23:57;1.60;99.90
46730;DHT22;32476;50.002;11.854;2023-12-20T10:26:25;1.80;99.90
46730;DHT22;32476;50.002;11.854;2023-12-20T10:28:55;1.80;99.90
46730;DHT22;32476;50.002;11.854;2023-12-20T10:31:33;1.80;99.90
46730;DHT22;32476;50.002;11.854;2023-12-20T10:34:02;1.80;99.90
46730;DHT22;32476;50.002;11.854;2023-12-20T10:36:32;1.80;99.90
46730;DHT22;32476;50.002;11.854;2023-12-20T10:38:59;1.80;99.90
46730;DHT22;32476;50.002;11.854;2023-12-20T10:41:31;1.80;99.90
46730;DHT22;32476;50.002;11.854;2023-12-20T10:44:04;1.70;99.90
46730;DHT22;32476;50.002;11.854;2023-12-20T10:46:34;1.70;99.90
46730;DHT22;32476;50.002;11.854;2023-12-20T10:49:05;1.70;99.90
46730;DHT22;32476;50.002;11.854;2023-12-20T10:51:35;1.70;99.90
46730;DHT22;32476;50.002;11.854;2023-12-20T10:54:02;1.70;99.90
46730;DHT22;32476;50.002;11.854;2023-12-20T10:56:32;1.70;99.90
46730;DHT22;32476;50.002;11.854;2023-12-20T10:59:02;1.70;99.90
46730;DHT22;32476;50.002;11.854;2023-12-20T11:01:31;1.70;99.90
46730;DHT22;32476;50.002;11.854;2023-12-20T11:03:58;1.70;99.90
46730;DHT22;32476;50.002;11.854;2023-12-20T11:06:51;1.70;99.90
46730;DHT22;32476;50.002;11.854;2023-12-20T11:09:25;1.70;99.90
46730;DHT22;32476;50.002;11.854;2023-12-20T11:12:18;1.70;99.90
46730;DHT22;32476;50.002;11.854;2023-12-20T11:14:50;1.70;99.90
46730;DHT22;32476;50.002;11.854;2023-12-20T11:17:18;1.80;99.90
46730;DHT22;32476;50.002;11.854;2023-12-20T11:22:52;1.80;99.90
46730;DHT22;32476;50.002;11.854;2023-12-20T11:25:19;1.80;99.90
46730;DHT22;32476;50.002;11.854;2023-12-20T11:28:06;1.70;99.90
46730;DHT22;32476;50.002;11.854;2023-12-20T11:30:47;1.70;99.90
46730;DHT22;32476;50.002;11.854;2023-12-20T11:33:16;1.70;99.90
46730;DHT22;32476;50.002;11.854;2023-12-20T11:35:46;1.70;99.90
46730;DHT22;32476;50.002;11.854;2023-12-20T11:38:13;1.70;99.90
46730;DHT22;32476;50.002;11.854;2023-12-20T11:40:42;1.70;99.90
46730;DHT22;32476;50.002;11.854;2023-12-20T11:43:09;1.70;99.90
46730;DHT22;32476;50.002;11.854;2023-12-20T11:45:35;1.80;99.90
46730;DHT22;32476;50.002;11.854;2023-12-20T11:48:03;1.80;99.90
46730;DHT22;32476;50.002;11.854;2023-12-20T11:50:54;1.80;99.90
46730;DHT22;32476;50.002;11.854;2023-12-20T11:53:22;1.80;99.90
46730;DHT22;32476;50.002;11.854;2023-12-20T11:55:49;1.80;99.90
46730;DHT22;32476;50.002;11.854;2023-12-20T11:58:15;1.80;99.90
46730;DHT22;32476;50.002;11.854;2023-12-20T12:00:43;1.80;99.90
46730;DHT22;32476;50.002;11.854;2023-12-20T12:03:09;1.80;99.90
46730;DHT22;32476;50.002;11.854;2023-12-20T12:05:35;1.80;99.90
46730;DHT22;32476;50.002;11.854;2023-12-20T12:08:03;1.70;99.90
46730;DHT22;32476;50.002;11.854;2023-12-20T12:10:30;1.60;99.90
46730;DHT22;32476;50.002;11.854;2023-12-20T12:12:56;1.60;99.90
46730;DHT22;32476;50.002;11.854;2023-12-20T12:15:23;1.60;99.90
46730;DHT22;32476;50.002;11.854;2023-12-20T12:17:54;1.60;99.90
46730;DHT22;32476;50.002;11.854;2023-12-20T12:20:21;1.60;99.90
46730;DHT22;32476;50.002;11.854;2023-12-20T12:23:04;1.60;99.90
46730;DHT22;32476;50.002;11.854;2023-12-20T12:25:32;1.60;99.90
46730;DHT22;32476;50.002;11.854;2023-12-20T12:28:02;1.50;99.90
46730;DHT22;32476;50.002;11.854;2023-12-20T12:30:28;1.50;99.90
46730;DHT22;32476;50.002;11.854;2023-12-20T12:32:57;1.50;99.90
46730;DHT22;32476;50.002;11.854;2023-12-20T12:35:25;1.50;99.90
46730;DHT22;32476;50.002;11.854;2023-12-20T12:37:51;1.50;99.90
46730;DHT22;32476;50.002;11.854;2023-12-20T12:40:17;1.50;99.90
46730;DHT22;32476;50.002;11.854;2023-12-20T12:42:45;1.50;99.90
46730;DHT22;32476;50.002;11.854;2023-12-20T12:45:11;1.60;99.90
46730;DHT22;32476;50.002;11.854;2023-12-20T12:47:38;1.60;99.90
46730;DHT22;32476;50.002;11.854;2023-12-20T12:50:06;1.60;99.90
46730;DHT22;32476;50.002;11.854;2023-12-20T12:52:32;1.60;99.90
46730;DHT22;32476;50.002;11.854;2023-12-20T12:54:58;1.60;99.90
46730;DHT22;32476;50.002;11.854;2023-12-20T12:57:26;1.60;99.90
46730;DHT22;32476;50.002;11.854;2023-12-20T12:59:52;1.60;99.90
46730;DHT22;32476;50.002;11.854;2023-12-20T13:02:18;1.60;99.90
46730;DHT22;32476;50.002;11.854;2023-12-20T13:04:45;1.60;99.90
46730;DHT22;32476;50.002;11.854;2023-12-20T13:07:12;1.60;99.90
46730;DHT22;32476;50.002;11.854;2023-12-20T13:09:38;1.60;99.90
46730;DHT22;32476;50.002;11.854;2023-12-20T13:12:07;1.60;99.90
46730;DHT22;32476;50.002;11.854;2023-12-20T13:14:34;1.60;99.90
46730;DHT22;32476;50.002;11.854;2023-12-20T13:17:01;1.60;99.90
46730;DHT22;32476;50.002;11.854;2023-12-20T13:19:29;1.60;99.90
46730;DHT22;32476;50.002;11.854;2023-12-20T13:21:56;1.60;99.90
46730;DHT22;32476;50.002;11.854;2023-12-20T13:24:22;1.60;99.90
46730;DHT22;32476;50.002;11.854;2023-12-20T13:26:50;1.60;99.90
46730;DHT22;32476;50.002;11.854;2023-12-20T13:29:22;1.60;99.90
46730;DHT22;32476;50.002;11.854;2023-12-20T13:31:49;1.60;99.90
46730;DHT22;32476;50.002;11.854;2023-12-20T13:34:15;1.60;99.90
46730;DHT22;32476;50.002;11.854;2023-12-20T13:36:44;1.60;99.90
46730;DHT22;32476;50.002;11.854;2023-12-20T13:39:27;1.60;99.90
46730;DHT22;32476;50.002;11.854;2023-12-20T13:41:56;1.60;99.90
46730;DHT22;32476;50.002;11.854;2023-12-20T13:44:23;1.60;99.90
46730;DHT22;32476;50.002;11.854;2023-12-20T13:46:50;1.70;99.90
46730;DHT22;32476;50.002;11.854;2023-12-20T13:49:16;1.60;99.90
46730;DHT22;32476;50.002;11.854;2023-12-20T13:51:43;1.60;99.90
46730;DHT22;32476;50.002;11.854;2023-12-20T13:54:09;1.60;99.90
46730;DHT22;32476;50.002;11.854;2023-12-20T13:56:36;1.60;99.90
46730;DHT22;32476;50.002;11.854;2023-12-20T13:59:03;1.60;99.90
46730;DHT22;32476;50.002;11.854;2023-12-20T14:01:29;1.60;99.90
46730;DHT22;32476;50.002;11.854;2023-12-20T14:03:55;1.50;99.90
46730;DHT22;32476;50.002;11.854;2023-12-20T14:06:23;1.60;99.90
46730;DHT22;32476;50.002;11.854;2023-12-20T14:08:49;1.50;99.90
46730;DHT22;32476;50.002;11.854;2023-12-20T14:11:15;1.50;99.90
46730;DHT22;32476;50.002;11.854;2023-12-20T14:13:42;1.50;99.90
46730;DHT22;32476;50.002;11.854;2023-12-20T14:16:09;1.50;99.90
46730;DHT22;32476;50.002;11.854;2023-12-20T14:18:41;1.50;99.90
46730;DHT22;32476;50.002;11.854;2023-12-20T14:21:08;1.50;99.90
46730;DHT22;32476;50.002;11.854;2023-12-20T14:23:34;1.50;99.90
46730;DHT22;32476;50.002;11.854;2023-12-20T14:26:01;1.50;99.90
46730;DHT22;32476;50.002;11.854;2023-12-20T14:28:32;1.50;99.90
46730;DHT22;32476;50.002;11.854;2023-12-20T14:30:59;1.50;99.90
46730;DHT22;32476;50.002;11.854;2023-12-20T14:33:24;1.50;99.90
46730;DHT22;32476;50.002;11.854;2023-12-20T14:35:52;1.50;99.90
46730;DHT22;32476;50.002;11.854;2023-12-20T14:38:18;1.50;99.90
46730;DHT22;32476;50.002;11.854;2023-12-20T14:40:47;1.50;99.90
46730;DHT22;32476;50.002;11.854;2023-12-20T14:43:14;1.50;99.90
46730;DHT22;32476;50.002;11.854;2023-12-20T14:45:42;1.50;99.90
46730;DHT22;32476;50.002;11.854;2023-12-20T14:48:08;1.50;99.90
46730;DHT22;32476;50.002;11.854;2023-12-20T14:50:36;1.50;99.90
46730;DHT22;32476;50.002;11.854;2023-12-20T14:53:02;1.50;99.90
46730;DHT22;32476;50.002;11.854;2023-12-20T14:55:29;1.50;99.90
46730;DHT22;32476;50.002;11.854;2023-12-20T14:57:57;1.50;99.90
46730;DHT22;32476;50.002;11.854;2023-12-20T15:00:23;1.60;99.90
46730;DHT22;32476;50.002;11.854;2023-12-20T15:02:49;1.50;99.90
46730;DHT22;32476;50.002;11.854;2023-12-20T15:05:16;1.50;99.90
46730;DHT22;32476;50.002;11.854;2023-12-20T15:07:43;1.50;99.90
46730;DHT22;32476;50.002;11.854;2023-12-20T15:10:09;1.60;99.90
46730;DHT22;32476;50.002;11.854;2023-12-20T15:12:37;1.50;99.90
46730;DHT22;32476;50.002;11.854;2023-12-20T15:15:03;1.50;99.90
46730;DHT22;32476;50.002;11.854;2023-12-20T15:17:30;1.50;99.90
46730;DHT22;32476;50.002;11.854;2023-12-20T15:19:57;1.50;99.90
46730;DHT22;32476;50.002;11.854;2023-12-20T15:22:23;1.60;99.90
46730;DHT22;32476;50.002;11.854;2023-12-20T15:24:52;1.50;99.90
46730;DHT22;32476;50.002;11.854;2023-12-20T15:27:21;1.50;99.90
46730;DHT22;32476;50.002;11.854;2023-12-20T15:29:47;1.50;99.90
46730;DHT22;32476;50.002;11.854;2023-12-20T15:32:18;1.50;99.90
46730;DHT22;32476;50.002;11.854;2023-12-20T15:34:46;1.60;99.90